Terminal Aerodrome Forecast
Issued by NWS Portland, OR

Home | Current Version | Previous Version | Text Only | Print | Product List | Glossary On
Versions: 1 2 3 4 5 6 7 8 9 10 11 12 13 14 15 16 17 18 19 20 21 22 23 24 25 26 27 28
000
FTUS46 KPQR 051720
TAFTTD
TAF
KTTD 051720Z 0518/0618 22006KT P6SM -SHRA SCT025 OVC070
     FM052100 23007KT P6SM -SHRA SCT030 BKN060
     FM060300 VRB03KT P6SM VCSH SCT030 BKN070
     FM061700 24004KT P6SM -SHRA SCT025 BKN050=

USA.gov is the U.S. government's official web portal to all federal, state and local government web resources and services.